createdAt,value
2018-03-22T00:00:14.356Z,63.40
2018-03-22T00:02:41.330Z,65.10
2018-03-22T00:05:10.261Z,65.00
2018-03-22T00:07:37.205Z,65.00
2018-03-22T00:10:03.442Z,66.50
2018-03-22T00:12:29.762Z,65.50
2018-03-22T00:14:57.141Z,76.50
2018-03-22T00:17:23.552Z,76.40
2018-03-22T00:19:49.802Z,72.90
2018-03-22T00:22:23.975Z,66.00
2018-03-22T00:24:50.230Z,76.10
2018-03-22T00:27:16.476Z,67.80
2018-03-22T00:29:42.699Z,67.20
2018-03-22T00:32:09.522Z,79.30
2018-03-22T00:34:35.954Z,68.40
2018-03-22T00:37:03.018Z,67.00
2018-03-22T00:39:30.309Z,72.10
2018-03-22T00:41:56.539Z,72.00
2018-03-22T00:44:22.761Z,66.40
2018-03-22T00:46:49.762Z,64.80
2018-03-22T00:49:15.983Z,64.70
2018-03-22T00:51:42.214Z,69.90
2018-03-22T00:54:09.198Z,72.30
2018-03-22T00:56:35.509Z,72.70
2018-03-22T00:59:02.729Z,69.70
2018-03-22T01:01:28.953Z,69.30
2018-03-22T01:06:37.789Z,73.40
2018-03-22T01:09:04.809Z,65.90
2018-03-22T01:16:36.212Z,65.60
2018-03-22T01:19:02.888Z,69.40
2018-03-22T01:21:29.772Z,67.00
2018-03-22T01:23:58.322Z,78.00
2018-03-22T01:26:25.567Z,68.50
2018-03-22T01:28:52.007Z,68.80
2018-03-22T01:31:18.540Z,69.80
2018-03-22T01:33:45.019Z,65.70
2018-03-22T01:36:12.277Z,77.50
2018-03-22T01:38:38.703Z,67.50
2018-03-22T01:41:05.796Z,66.20
2018-03-22T01:43:32.285Z,70.50
2018-03-22T01:46:00.422Z,72.70
2018-03-22T01:48:26.892Z,77.00
2018-03-22T01:50:53.391Z,68.90
2018-03-22T01:53:20.511Z,70.20
2018-03-22T01:55:47.061Z,62.10
2018-03-22T01:58:14.262Z,65.00
2018-03-22T02:03:16.037Z,67.00
2018-03-22T02:05:42.533Z,66.90
2018-03-22T02:08:09.018Z,68.00
2018-03-22T02:10:35.562Z,57.40
2018-03-22T02:13:02.013Z,65.20
2018-03-22T02:15:29.361Z,61.80
2018-03-22T02:17:56.524Z,62.60
2018-03-22T02:20:23.001Z,62.50
2018-03-22T02:22:49.411Z,71.70
2018-03-22T02:25:15.857Z,63.90
2018-03-22T02:27:42.227Z,67.30
2018-03-22T02:30:08.641Z,62.80
2018-03-22T02:32:35.023Z,59.40
2018-03-22T02:35:01.535Z,60.60
2018-03-22T02:37:29.466Z,60.50
2018-03-22T02:39:55.908Z,60.10
2018-03-22T02:42:23.763Z,67.50
2018-03-22T02:44:51.853Z,67.10
2018-03-22T02:47:18.314Z,66.70
2018-03-22T02:49:45.427Z,71.20
2018-03-22T02:52:11.866Z,71.10
2018-03-22T02:54:38.391Z,75.20
2018-03-22T02:57:04.843Z,74.70
2018-03-22T02:59:31.983Z,67.20
2018-03-22T03:01:58.337Z,67.10
2018-03-22T03:04:25.607Z,74.50
2018-03-22T03:06:52.820Z,73.00
2018-03-22T03:09:19.144Z,74.80
2018-03-22T03:11:45.583Z,80.70
2018-03-22T03:14:11.995Z,73.10
2018-03-22T03:16:38.426Z,80.40
2018-03-22T03:19:20.363Z,83.10
2018-03-22T03:21:46.782Z,79.10
2018-03-22T03:24:13.145Z,75.40
2018-03-22T03:26:39.563Z,75.20
2018-03-22T03:29:05.940Z,75.60
2018-03-22T03:31:32.424Z,83.90
2018-03-22T03:33:59.448Z,78.20
2018-03-22T03:36:28.655Z,77.40
2018-03-22T03:38:56.031Z,81.90
2018-03-22T03:41:22.498Z,79.30
2018-03-22T03:43:50.373Z,79.40
2018-03-22T03:46:16.734Z,79.10
2018-03-22T03:48:43.238Z,80.40
2018-03-22T03:51:09.730Z,81.70
2018-03-22T03:53:36.203Z,81.60
2018-03-22T03:56:03.560Z,83.90
2018-03-22T03:58:30.045Z,83.80
2018-03-22T04:00:56.469Z,90.00
2018-03-22T04:03:22.845Z,91.00
2018-03-22T04:05:49.336Z,92.00
2018-03-22T04:08:19.211Z,91.80
2018-03-22T04:10:45.661Z,93.30
2018-03-22T04:13:12.031Z,91.50
2018-03-22T04:15:38.394Z,92.30
2018-03-22T04:18:04.809Z,94.60
2018-03-22T04:20:31.206Z,94.30
2018-03-22T04:22:57.557Z,95.90
2018-03-22T04:25:24.679Z,94.40
2018-03-22T04:27:51.218Z,95.20
2018-03-22T04:30:17.690Z,95.60
2018-03-22T04:32:44.202Z,95.20
2018-03-22T04:35:13.717Z,95.20
2018-03-22T04:37:40.232Z,96.00
2018-03-22T04:40:06.671Z,97.10
2018-03-22T04:42:33.162Z,97.70
2018-03-22T04:44:59.786Z,97.70
2018-03-22T04:47:26.268Z,97.10
2018-03-22T04:49:52.816Z,97.80
2018-03-22T04:52:19.223Z,97.90
2018-03-22T04:54:45.701Z,97.60
2018-03-22T04:57:12.462Z,98.10
2018-03-22T04:59:38.847Z,98.10
2018-03-22T05:02:05.343Z,98.80
2018-03-22T05:04:31.882Z,99.20
2018-03-22T05:06:58.850Z,99.40
2018-03-22T05:09:28.429Z,99.90
2018-03-22T05:19:14.345Z,99.90
2018-03-22T05:21:40.824Z,99.90
2018-03-22T05:24:07.398Z,99.90
2018-03-22T05:26:34.645Z,99.90
2018-03-22T05:29:01.313Z,99.90
2018-03-22T05:31:27.817Z,99.90
2018-03-22T05:33:54.293Z,99.90
2018-03-22T05:36:21.595Z,99.90
2018-03-22T05:38:48.080Z,99.90
2018-03-22T05:41:15.390Z,99.90
2018-03-22T05:43:41.885Z,99.90
2018-03-22T05:46:08.510Z,99.90
2018-03-22T05:48:36.598Z,99.90
2018-03-22T05:51:05.403Z,99.90
2018-03-22T05:53:34.373Z,99.90
2018-03-22T05:56:01.326Z,99.90
2018-03-22T05:58:28.491Z,99.90
2018-03-22T06:00:55.007Z,99.90
2018-03-22T06:03:21.541Z,99.90
2018-03-22T06:05:47.963Z,99.90
2018-03-22T06:08:18.857Z,99.90
2018-03-22T06:10:45.179Z,99.90
2018-03-22T06:13:11.506Z,99.90
2018-03-22T06:15:37.780Z,99.90
2018-03-22T06:18:04.742Z,99.90
2018-03-22T06:20:32.149Z,99.90
2018-03-22T06:22:59.301Z,99.90
2018-03-22T06:25:25.543Z,99.90
2018-03-22T06:27:52.602Z,99.90
2018-03-22T06:30:19.002Z,99.90
2018-03-22T06:32:45.318Z,99.90
2018-03-22T06:35:11.563Z,99.90
2018-03-22T06:37:37.934Z,99.90
2018-03-22T06:40:06.011Z,99.90
2018-03-22T06:42:32.965Z,99.90
2018-03-22T06:45:00.706Z,99.90
2018-03-22T06:47:26.940Z,99.90
2018-03-22T06:49:53.199Z,99.90
2018-03-22T06:52:19.646Z,99.90
2018-03-22T06:54:46.590Z,99.90
2018-03-22T06:57:12.867Z,99.90
2018-03-22T06:59:39.086Z,99.90
2018-03-22T07:02:06.662Z,99.90
2018-03-22T07:04:33.658Z,99.90
2018-03-22T07:07:00.695Z,99.90
2018-03-22T07:09:26.899Z,99.90
2018-03-22T07:11:54.140Z,99.90
2018-03-22T07:14:20.334Z,99.90
2018-03-22T07:16:47.258Z,99.90
2018-03-22T07:19:13.417Z,99.90
2018-03-22T07:21:40.419Z,99.90
2018-03-22T07:24:06.689Z,99.90
2018-03-22T07:26:32.942Z,99.90
2018-03-22T07:28:59.180Z,99.90
2018-03-22T07:31:25.484Z,99.90
2018-03-22T07:33:52.427Z,99.90
2018-03-22T07:36:18.677Z,99.90
2018-03-22T07:38:44.831Z,99.90
2018-03-22T07:41:11.135Z,99.90
2018-03-22T07:43:41.547Z,99.90
2018-03-22T07:46:09.843Z,99.90
2018-03-22T07:48:37.118Z,99.90
2018-03-22T07:51:03.669Z,99.90
2018-03-22T07:53:30.855Z,99.90
2018-03-22T07:55:57.230Z,99.90
2018-03-22T07:58:24.365Z,99.90
2018-03-22T08:00:52.020Z,99.90
2018-03-22T08:03:18.399Z,99.90
2018-03-22T08:05:44.714Z,99.90
2018-03-22T08:08:14.884Z,99.90
2018-03-22T08:10:41.131Z,99.90
2018-03-22T08:13:07.451Z,99.90
2018-03-22T08:15:34.639Z,99.90
2018-03-22T08:18:02.094Z,99.90
2018-03-22T08:20:28.282Z,99.90
2018-03-22T08:22:54.490Z,99.90
2018-03-22T08:25:20.772Z,99.90
2018-03-22T08:27:46.997Z,99.90
2018-03-22T08:30:13.231Z,99.90
2018-03-22T08:32:39.589Z,99.90
2018-03-22T08:35:06.063Z,99.90
2018-03-22T08:37:32.479Z,99.90
2018-03-22T08:39:59.695Z,99.90
2018-03-22T08:42:25.978Z,99.90
2018-03-22T08:44:52.277Z,99.90
2018-03-22T08:47:19.358Z,99.90
2018-03-22T08:49:45.592Z,99.90
2018-03-22T08:52:13.450Z,99.90
2018-03-22T08:54:39.711Z,99.90
2018-03-22T08:57:06.052Z,99.90
2018-03-22T08:59:32.285Z,99.90
2018-03-22T09:02:02.373Z,99.90
2018-03-22T09:04:29.345Z,99.90
2018-03-22T09:06:55.772Z,99.90
2018-03-22T09:09:22.474Z,99.90
2018-03-22T09:11:48.657Z,99.90
2018-03-22T09:14:15.462Z,99.90
2018-03-22T09:16:42.560Z,99.90
2018-03-22T09:19:08.886Z,99.90
2018-03-22T09:21:35.091Z,99.90
2018-03-22T09:24:02.324Z,99.90
2018-03-22T09:26:28.677Z,99.90
2018-03-22T09:28:57.834Z,99.90
2018-03-22T09:31:24.096Z,99.90
2018-03-22T09:33:50.372Z,99.90
2018-03-22T09:36:16.737Z,99.90
2018-03-22T09:38:42.998Z,99.90
2018-03-22T09:41:09.433Z,99.90
2018-03-22T09:43:36.476Z,99.90
2018-03-22T09:48:38.571Z,99.90
2018-03-22T09:51:04.915Z,99.90
2018-03-22T09:53:31.969Z,99.90
2018-03-22T09:55:58.234Z,99.90
2018-03-22T09:58:25.285Z,99.90
2018-03-22T10:00:51.878Z,99.90
2018-03-22T10:03:21.467Z,99.90
2018-03-22T10:05:47.803Z,99.90
2018-03-22T10:08:14.188Z,99.90
2018-03-22T10:10:40.502Z,99.90
2018-03-22T10:13:06.970Z,99.90
2018-03-22T10:15:34.324Z,99.90
2018-03-22T10:18:00.713Z,99.90
2018-03-22T10:20:27.001Z,99.90
2018-03-22T10:22:53.257Z,99.90
2018-03-22T10:25:19.547Z,99.90
2018-03-22T10:27:45.706Z,99.90
2018-03-22T10:30:11.930Z,99.90
2018-03-22T10:32:38.137Z,99.90
2018-03-22T10:35:04.359Z,99.90
2018-03-22T10:37:30.682Z,99.90
2018-03-22T10:39:56.927Z,99.90
2018-03-22T10:42:23.361Z,99.90
2018-03-22T10:44:51.335Z,99.90
2018-03-22T10:47:17.546Z,99.90
2018-03-22T10:49:43.925Z,99.90
2018-03-22T10:52:10.854Z,99.90
2018-03-22T10:54:37.064Z,99.90
2018-03-22T10:57:03.497Z,99.90
2018-03-22T10:59:29.842Z,99.90
2018-03-22T11:02:00.035Z,99.90
2018-03-22T11:04:27.211Z,99.90
2018-03-22T11:06:53.621Z,99.90
2018-03-22T11:09:20.644Z,99.90
2018-03-22T11:11:46.870Z,99.90
2018-03-22T11:14:13.083Z,99.90
2018-03-22T11:16:40.178Z,99.90
2018-03-22T11:19:06.521Z,99.90
2018-03-22T11:21:32.863Z,99.90
2018-03-22T11:24:04.282Z,99.90
2018-03-22T11:26:30.573Z,99.90
2018-03-22T11:28:56.851Z,99.90
2018-03-22T11:31:23.094Z,99.90
2018-03-22T11:33:49.390Z,99.90
2018-03-22T11:36:15.788Z,99.90
2018-03-22T11:38:42.172Z,99.90
2018-03-22T11:41:08.410Z,99.90
2018-03-22T11:43:37.819Z,99.90
2018-03-22T11:46:04.108Z,99.90
2018-03-22T11:48:30.396Z,99.90
2018-03-22T11:50:56.690Z,99.90
2018-03-22T11:53:22.932Z,99.90
2018-03-22T11:55:49.255Z,99.90
2018-03-22T11:58:15.594Z,99.90
2018-03-22T12:00:48.651Z,99.90
2018-03-22T12:03:15.056Z,99.90
2018-03-22T12:05:41.529Z,99.90
2018-03-22T12:08:07.875Z,99.90
2018-03-22T12:10:34.144Z,99.90
2018-03-22T12:13:00.459Z,99.90
2018-03-22T12:15:34.213Z,99.90
2018-03-22T12:18:00.579Z,99.90
2018-03-22T12:20:26.878Z,99.90
2018-03-22T12:22:53.115Z,99.90
2018-03-22T12:25:19.415Z,99.90
2018-03-22T12:27:45.682Z,99.90
2018-03-22T12:30:12.055Z,99.90
2018-03-22T12:32:43.556Z,99.90
2018-03-22T12:35:10.879Z,99.90
2018-03-22T12:37:37.137Z,99.90
2018-03-22T12:40:03.538Z,99.90
2018-03-22T12:42:30.007Z,99.90
2018-03-22T12:44:56.324Z,99.90
2018-03-22T12:47:22.760Z,99.90
2018-03-22T12:49:49.077Z,99.90
2018-03-22T12:52:19.214Z,99.90
2018-03-22T12:54:46.466Z,99.90
2018-03-22T12:57:12.915Z,99.90
2018-03-22T12:59:39.406Z,99.90
2018-03-22T13:02:06.295Z,99.90
2018-03-22T13:04:32.601Z,99.90
2018-03-22T13:06:58.844Z,99.90
2018-03-22T13:09:30.208Z,99.90
2018-03-22T13:11:56.524Z,99.90
2018-03-22T13:14:22.814Z,99.90
2018-03-22T13:16:49.248Z,99.90
2018-03-22T13:19:15.600Z,99.90
2018-03-22T13:21:42.697Z,99.90
2018-03-22T13:24:09.109Z,99.90
2018-03-22T13:26:39.225Z,99.90
2018-03-22T13:29:05.609Z,99.90
2018-03-22T13:31:32.051Z,99.90
2018-03-22T13:33:58.310Z,99.90
2018-03-22T13:36:25.297Z,99.90
2018-03-22T13:38:51.629Z,99.90
2018-03-22T13:41:17.934Z,99.90
2018-03-22T13:43:44.403Z,99.90
2018-03-22T13:46:15.636Z,99.90
2018-03-22T13:48:42.022Z,99.90
2018-03-22T13:51:08.378Z,99.90
2018-03-22T13:53:34.729Z,99.90
2018-03-22T13:56:01.112Z,99.90
2018-03-22T13:58:27.383Z,99.90
2018-03-22T14:00:54.405Z,99.90
2018-03-22T14:03:22.432Z,99.90
2018-03-22T14:05:48.850Z,99.90
2018-03-22T14:08:16.092Z,99.90
2018-03-22T14:10:42.410Z,99.90
2018-03-22T14:13:08.690Z,99.90
2018-03-22T14:15:34.940Z,99.90
2018-03-22T14:18:01.937Z,99.90
2018-03-22T14:20:36.057Z,99.90
2018-03-22T14:23:02.350Z,99.90
2018-03-22T14:25:28.641Z,99.90
2018-03-22T14:27:54.938Z,99.90
2018-03-22T14:30:21.237Z,99.90
2018-03-22T14:32:48.231Z,99.90
2018-03-22T14:35:20.862Z,99.90
2018-03-22T14:37:47.290Z,99.90
2018-03-22T14:40:14.346Z,99.90
2018-03-22T14:42:40.609Z,99.90
2018-03-22T14:45:06.892Z,99.90
2018-03-22T14:47:33.052Z,99.90
2018-03-22T14:49:59.313Z,99.90
2018-03-22T14:52:25.774Z,99.90
2018-03-22T14:54:52.103Z,99.90
2018-03-22T14:57:19.433Z,99.90
2018-03-22T14:59:46.450Z,99.90
2018-03-22T15:02:12.833Z,99.90
2018-03-22T15:04:39.138Z,99.90
2018-03-22T15:07:05.381Z,99.90
2018-03-22T15:09:31.625Z,99.90
2018-03-22T15:11:57.958Z,99.90
2018-03-22T15:14:24.259Z,99.90
2018-03-22T15:16:50.519Z,99.90
2018-03-22T15:19:16.803Z,99.90
2018-03-22T15:21:43.318Z,99.90
2018-03-22T15:24:09.623Z,99.90
2018-03-22T15:26:36.750Z,99.90
2018-03-22T15:29:02.956Z,99.90
2018-03-22T15:31:29.226Z,99.90
2018-03-22T15:33:55.450Z,99.90
2018-03-22T15:36:21.802Z,99.90
2018-03-22T15:38:48.114Z,99.90
2018-03-22T15:41:14.489Z,99.90
2018-03-22T15:43:40.775Z,99.90
2018-03-22T15:46:06.983Z,99.90
2018-03-22T15:48:33.251Z,99.90
2018-03-22T15:50:59.529Z,99.90
2018-03-22T15:53:25.840Z,99.90
2018-03-22T15:55:54.324Z,99.90
2018-03-22T15:58:20.503Z,99.90
2018-03-22T16:03:35.708Z,99.90
2018-03-22T16:06:04.666Z,99.90
2018-03-22T16:08:30.968Z,99.90
2018-03-22T16:10:58.445Z,99.90
2018-03-22T16:13:24.854Z,99.90
2018-03-22T16:15:51.591Z,99.90
2018-03-22T16:18:19.601Z,99.90
2018-03-22T16:20:46.093Z,99.90
2018-03-22T16:23:14.313Z,99.90
2018-03-22T16:25:40.784Z,99.90
2018-03-22T16:28:07.423Z,99.90
2018-03-22T16:30:34.050Z,99.90
2018-03-22T16:33:00.677Z,99.90
2018-03-22T16:35:27.125Z,99.90
2018-03-22T16:37:53.655Z,99.90
2018-03-22T16:40:20.096Z,99.90
2018-03-22T16:42:46.852Z,99.90
2018-03-22T16:45:13.262Z,99.90
2018-03-22T16:47:39.740Z,99.90
2018-03-22T16:50:06.197Z,99.90
2018-03-22T16:52:32.701Z,99.90
2018-03-22T16:55:00.584Z,99.90
2018-03-22T16:57:26.974Z,99.90
2018-03-22T16:59:53.417Z,99.90
2018-03-22T17:02:19.788Z,99.90
2018-03-22T17:04:46.065Z,99.90
2018-03-22T17:07:12.950Z,99.90
2018-03-22T17:09:39.275Z,99.90
2018-03-22T17:12:05.630Z,99.90
2018-03-22T17:14:32.121Z,99.90
2018-03-22T17:16:58.532Z,99.90
2018-03-22T17:19:24.929Z,99.90
2018-03-22T17:21:51.222Z,99.90
2018-03-22T17:24:17.683Z,99.90
2018-03-22T17:26:43.930Z,99.90
2018-03-22T17:29:10.228Z,99.90
2018-03-22T17:31:36.502Z,99.90
2018-03-22T17:34:03.981Z,99.90
2018-03-22T17:36:30.302Z,99.90
2018-03-22T17:38:56.651Z,99.90
2018-03-22T17:43:58.676Z,99.90
2018-03-22T17:46:25.018Z,99.90
2018-03-22T17:48:54.534Z,99.90
2018-03-22T17:51:22.096Z,99.90
2018-03-22T17:53:48.772Z,99.90
2018-03-22T17:56:15.216Z,99.90
2018-03-22T17:58:42.213Z,99.90
2018-03-22T18:01:08.642Z,99.90
2018-03-22T18:03:35.952Z,99.90
2018-03-22T18:06:02.412Z,99.90
2018-03-22T18:08:28.762Z,99.90
2018-03-22T18:10:55.136Z,99.90
2018-03-22T18:13:22.145Z,99.90
2018-03-22T18:15:48.550Z,99.90
2018-03-22T18:18:14.781Z,99.90
2018-03-22T18:20:41.030Z,99.90
2018-03-22T18:23:07.300Z,99.90
2018-03-22T18:25:33.608Z,99.90
2018-03-22T18:28:00.001Z,99.90
2018-03-22T18:30:26.349Z,99.90
2018-03-22T18:32:55.299Z,99.90
2018-03-22T18:35:22.513Z,99.90
2018-03-22T18:37:48.815Z,99.90
2018-03-22T18:40:15.362Z,99.90
2018-03-22T18:42:41.685Z,99.90
2018-03-22T18:45:08.037Z,99.90
2018-03-22T18:47:34.570Z,99.90
2018-03-22T18:50:00.999Z,99.90
2018-03-22T18:52:27.282Z,99.90
2018-03-22T18:55:00.284Z,99.90
2018-03-22T18:57:26.634Z,99.90
2018-03-22T18:59:53.806Z,99.90
2018-03-22T19:02:20.981Z,99.90
2018-03-22T19:04:47.289Z,99.90
2018-03-22T19:07:17.590Z,99.90
2018-03-22T19:09:44.187Z,99.90
2018-03-22T19:12:10.768Z,99.90
2018-03-22T19:14:37.990Z,99.90
2018-03-22T19:17:04.534Z,99.90
2018-03-22T19:19:31.384Z,99.90
2018-03-22T19:21:57.942Z,99.90
2018-03-22T19:24:25.449Z,99.90
2018-03-22T19:26:53.153Z,99.90
2018-03-22T19:29:19.928Z,99.90
2018-03-22T19:31:46.495Z,99.90
2018-03-22T19:34:13.871Z,99.90
2018-03-22T19:36:41.263Z,99.90
2018-03-22T19:39:07.875Z,99.90
2018-03-22T19:41:36.534Z,99.90
2018-03-22T19:44:03.146Z,99.90
2018-03-22T19:46:29.634Z,99.90
2018-03-22T19:48:56.166Z,99.90
2018-03-22T19:51:22.825Z,99.90
2018-03-22T19:53:49.443Z,99.90
2018-03-22T19:56:15.975Z,99.90
2018-03-22T19:58:43.534Z,99.90
2018-03-22T20:01:10.072Z,99.90
2018-03-22T20:03:36.649Z,99.90
2018-03-22T20:06:03.156Z,99.90
2018-03-22T20:08:29.725Z,99.90
2018-03-22T20:10:56.314Z,99.90
2018-03-22T20:13:23.016Z,99.90
2018-03-22T20:15:49.715Z,99.90
2018-03-22T20:18:16.302Z,99.90
2018-03-22T20:20:42.902Z,99.90
2018-03-22T20:23:09.524Z,99.90
2018-03-22T20:25:35.955Z,99.90
2018-03-22T20:28:03.656Z,99.90
2018-03-22T20:30:30.236Z,99.90
2018-03-22T20:32:56.752Z,99.90
2018-03-22T20:35:23.281Z,99.90
2018-03-22T20:37:49.955Z,99.90
2018-03-22T20:40:16.619Z,99.90
2018-03-22T20:42:43.145Z,99.90
2018-03-22T20:45:09.822Z,99.90
2018-03-22T20:47:36.337Z,99.90
2018-03-22T20:50:02.933Z,99.90
2018-03-22T20:52:31.264Z,99.90
2018-03-22T20:55:03.628Z,99.90
2018-03-22T20:57:30.272Z,99.90
2018-03-22T20:59:56.936Z,99.90
2018-03-22T21:02:23.770Z,99.90
2018-03-22T21:04:53.048Z,99.90
2018-03-22T21:07:21.166Z,99.90
2018-03-22T21:09:47.800Z,99.90
2018-03-22T21:12:14.308Z,99.90
2018-03-22T21:14:40.829Z,99.90
2018-03-22T21:17:07.394Z,99.90
2018-03-22T21:19:33.946Z,99.90
2018-03-22T21:22:00.753Z,99.90
2018-03-22T21:24:27.401Z,99.90
2018-03-22T21:26:54.753Z,99.90
2018-03-22T21:29:21.286Z,99.90
2018-03-22T21:31:47.818Z,99.90
2018-03-22T21:34:14.527Z,99.90
2018-03-22T21:36:40.983Z,99.90
2018-03-22T21:39:07.466Z,99.90
2018-03-22T21:41:33.954Z,99.90
2018-03-22T21:44:12.666Z,99.90
2018-03-22T21:46:39.807Z,99.90
2018-03-22T21:49:06.317Z,99.90
2018-03-22T21:51:32.720Z,99.90
2018-03-22T21:53:59.330Z,99.90
2018-03-22T21:56:25.887Z,99.90
2018-03-22T21:58:56.256Z,99.90
2018-03-22T22:01:22.739Z,99.90
2018-03-22T22:03:49.966Z,99.90
2018-03-22T22:06:16.376Z,99.90
2018-03-22T22:08:42.794Z,99.90
2018-03-22T22:11:09.269Z,99.90
2018-03-22T22:13:36.449Z,99.90
2018-03-22T22:16:03.664Z,99.90
2018-03-22T22:18:30.089Z,99.90
2018-03-22T22:20:57.196Z,99.90
2018-03-22T22:23:24.366Z,99.90
2018-03-22T22:25:51.750Z,99.90
2018-03-22T22:28:19.947Z,99.90
2018-03-22T22:30:46.475Z,99.90
2018-03-22T22:33:13.910Z,99.90
2018-03-22T22:35:40.335Z,99.90
2018-03-22T22:38:06.776Z,99.90
2018-03-22T22:40:33.247Z,99.90
2018-03-22T22:43:00.215Z,99.90
2018-03-22T22:45:26.660Z,99.90
2018-03-22T22:47:53.111Z,99.90
2018-03-22T22:50:22.475Z,99.90
2018-03-22T22:52:48.961Z,99.90
2018-03-22T22:55:15.437Z,99.90
2018-03-22T22:57:41.906Z,99.90
2018-03-22T23:00:09.842Z,99.90
2018-03-22T23:02:36.339Z,99.90
2018-03-22T23:05:02.782Z,99.90
2018-03-22T23:07:29.221Z,99.90
2018-03-22T23:09:55.641Z,99.90
2018-03-22T23:12:22.095Z,99.90
2018-03-22T23:14:48.520Z,99.90
2018-03-22T23:17:15.739Z,99.90
2018-03-22T23:19:42.293Z,99.90
2018-03-22T23:22:08.698Z,99.90
2018-03-22T23:24:35.821Z,99.90
2018-03-22T23:27:02.958Z,99.90
2018-03-22T23:29:29.321Z,99.90
2018-03-22T23:31:55.691Z,99.90
2018-03-22T23:34:22.166Z,99.90
2018-03-22T23:36:49.506Z,99.90
2018-03-22T23:39:15.986Z,99.90
2018-03-22T23:41:42.408Z,99.90
2018-03-22T23:44:08.784Z,99.90
2018-03-22T23:46:35.109Z,99.90
2018-03-22T23:49:01.510Z,99.90
2018-03-22T23:51:28.744Z,99.90
2018-03-22T23:53:55.131Z,99.90
2018-03-22T23:56:21.595Z,99.90
2018-03-22T23:58:48.065Z,99.90
